Donnellson, Iowa
Current Conditions -  °F | °C
As of 2:15 PM on Monday 24 Nov 2014 (Local Time) from KFSW Reporting Station
Overcast Overcast  
Wind Chill: -7°   Ceiling: 2300
Heat Index: -1°   Visibility: 10mi
Dew Point: -3°   Wind: 15mph
Humidity: 86%   Direction: 260°W
Pressure: 29.68"   Gusts: 20mph
Location:  40.64°N, 91.56°W
Report Text: KFSW 242015Z AUTO 26013G17KT 10SM OVC023 M01/M03 A2968 RMK AO2
Loading
Personal Weather Stations






























Interactive Weather Map New forecast layout! Learn more

10-Day Weather Forecast

Advertisements
Track Severe Weather on mobile